Terminal Aerodrome Forecast
Issued by NWS

Home | Current Version | Previous Version | Text Only | Print | Product List | Glossary On
Versions: 1 2 3 4 5 6 7 8 9 10 11 12 13 14 15
000
FTUS45 KGJT 240552 AAC
TAFEGE
TAF AMD
KEGE 240552Z 2406/2506 07008KT P6SM VCTS SCT100CB BKN200
      TEMPO 2406/2409 VRB10G18KT P6SM BKN100CB
     FM240900 VRB03KT P6SM SCT250
     FM241900 27012G20KT P6SM SCT150
     FM250200 08004KT P6SM SCT150
      AMD LTD TO CLD VIS AND WIND TIL 241300=

USA.gov is the U.S. government's official web portal to all federal, state and local government web resources and services.